Time;durP1;ratioP1;P1;durP2;ratioP2;P2;SDS_P1;SDS_P2;PMS_P1;PMS_P2;Temp;Humidity;BMP_temperature;BMP_pressure;BME280_temperature;BME280_humidity;BME280_pressure;Samples;Min_cycle;Max_cycle;Signal;HPM_P1;HPM_P2
2021/07/15 00:05:39;;;;;;;2.83;2.20;;;12.70;99.90;;;13.12;100.00;94802.00;2410326;55;34764;-50
2021/07/15 00:08:28;;;;;;;3.50;2.30;;;12.60;99.90;;;12.97;100.00;94828.00;2168592;56;27263;-50
2021/07/15 00:11:17;;;;;;;89.13;4.53;;;12.70;99.90;;;13.09;100.00;94831.00;2399246;56;26831;-50
2021/07/15 00:14:05;;;;;;;4.57;2.40;;;12.70;99.90;;;13.10;100.00;94824.00;2139834;56;27324;-50
2021/07/15 00:16:54;;;;;;;3.00;2.70;;;12.60;99.90;;;12.90;100.00;94827.00;2344491;56;26779;-49
2021/07/15 00:19:40;;;;;;;2.85;2.62;;;12.50;99.90;;;12.93;100.00;94829.00;2167622;56;27024;-50
2021/07/15 00:22:27;;;;;;;3.90;2.30;;;12.50;99.90;;;12.97;100.00;94827.00;2384612;56;26785;-50
2021/07/15 00:25:18;;;;;;;4.27;2.53;;;12.60;99.90;;;13.00;100.00;94824.00;2163686;56;26302;-49
2021/07/15 00:28:06;;;;;;;2.67;2.47;;;12.60;99.90;;;12.99;100.00;94826.00;2214592;56;26925;-50
2021/07/15 00:30:52;;;;;;;4.45;2.40;;;12.60;99.90;;;13.12;100.00;94822.00;2215178;55;27224;-50
2021/07/15 00:33:39;;;;;;;7.00;2.40;;;12.50;99.90;;;13.13;100.00;94827.00;2433588;55;27212;-50
2021/07/15 00:36:25;;;;;;;3.17;2.43;;;12.70;99.90;;;13.17;100.00;94820.00;2215650;55;26730;-50
2021/07/15 00:39:11;;;;;;;6.12;2.45;;;12.70;99.90;;;13.07;100.00;94819.00;2439141;55;27319;-49
2021/07/15 00:41:58;;;;;;;3.23;2.43;;;12.70;99.90;;;13.23;100.00;94817.00;2215553;56;26806;-50
2021/07/15 00:47:40;;;;;;;8.33;2.40;;;12.70;99.90;;;13.22;100.00;94786.00;2356740;56;34976;-50
2021/07/15 00:53:25;;;;;;;4.80;1.80;;;12.80;99.90;;;13.35;100.00;94778.00;2448642;54;33904;-50
2021/07/15 00:59:09;;;;;;;3.87;1.97;;;12.70;99.90;;;13.17;100.00;94773.00;2345555;56;33326;-50
2021/07/15 01:01:55;;;;;;;3.70;2.20;;;12.70;99.90;;;13.19;100.00;94798.00;2122381;57;26139;-49
2021/07/15 01:04:42;;;;;;;3.50;2.00;;;12.70;99.90;;;13.06;100.00;94792.00;2343707;56;26569;-50
2021/07/15 01:07:28;;;;;;;3.00;1.83;;;12.70;99.90;;;13.02;100.00;94793.00;2133814;57;26140;-49
2021/07/15 01:13:33;;;;;;;3.83;1.80;;;12.60;99.90;;;13.09;100.00;94766.00;2396251;55;33950;-49
2021/07/15 01:16:28;;;;;;;2.58;1.52;;;12.60;99.90;;;13.00;100.00;94785.00;2347798;56;27527;-49
2021/07/15 01:20:11;;;;;;;4.55;1.80;;;12.60;99.90;;;13.00;100.00;94787.00;2140850;57;26858;-50
2021/07/15 01:23:31;;;;;;;21.50;2.87;;;12.60;99.90;;;12.99;100.00;94783.00;2139539;57;26577;-49
2021/07/15 01:26:42;;;;;;;5.70;1.90;;;12.60;99.90;;;12.87;100.00;94783.00;2131602;57;26122;-50
2021/07/15 01:30:10;;;;;;;1.70;1.60;;;12.60;99.90;;;13.00;100.00;94783.00;2348724;56;26765;-50
2021/07/15 01:35:59;;;;;;;3.37;1.90;;;12.50;99.90;;;12.90;100.00;94757.00;2429330;54;34278;-50
2021/07/15 01:38:52;;;;;;;2.08;1.87;;;12.40;99.90;;;12.77;100.00;94785.00;2190790;55;26803;-50
2021/07/15 01:44:39;;;;;;;2.90;1.80;;;12.40;99.90;;;12.84;100.00;94757.00;2405400;55;33447;-49
2021/07/15 01:47:27;;;;;;;9.80;2.00;;;12.40;99.90;;;12.73;100.00;94771.00;2155638;56;27456;-50
2021/07/15 01:50:15;;;;;;;6.40;1.70;;;12.30;99.90;;;12.55;100.00;94775.00;2356051;57;26682;-48
2021/07/15 01:56:02;;;;;;;4.43;2.07;;;12.20;99.90;;;12.59;100.00;94763.00;2486522;53;34244;-50
2021/07/15 01:58:50;;;;;;;2.50;1.60;;;12.10;99.90;;;12.51;100.00;94780.00;2226576;55;27618;-50
2021/07/15 02:01:39;;;;;;;6.80;1.83;;;12.10;99.90;;;12.45;100.00;94781.00;2233333;55;26236;-51
2021/07/15 02:04:27;;;;;;;3.30;1.97;;;12.10;99.90;;;12.46;100.00;94774.00;2233550;55;26132;-51
2021/07/15 02:07:15;;;;;;;1.73;1.57;;;12.10;99.90;;;12.42;100.00;94778.00;2233692;55;26120;-51
2021/07/15 02:10:04;;;;;;;1.97;1.70;;;12.10;99.90;;;12.43;100.00;94777.00;2233534;55;26160;-51
2021/07/15 02:12:51;;;;;;;2.20;1.60;;;12.10;99.90;;;12.40;100.00;94773.00;2454643;54;27584;-51
2021/07/15 02:15:40;;;;;;;3.00;1.60;;;12.00;99.90;;;12.41;100.00;94774.00;2229477;55;26716;-49
2021/07/15 02:18:28;;;;;;;6.10;1.80;;;12.10;99.90;;;12.50;100.00;94767.00;2459613;54;26801;-50
2021/07/15 02:21:16;;;;;;;2.62;1.90;;;12.10;99.90;;;12.42;100.00;94765.00;2232416;55;27299;-50
2021/07/15 02:24:06;;;;;;;8.00;2.03;;;12.00;99.90;;;12.40;100.00;94765.00;2460115;54;26231;-49
2021/07/15 02:29:54;;;;;;;3.03;1.70;;;12.20;99.90;;;12.80;100.00;94740.00;2439997;54;34414;-50
2021/07/15 02:32:41;;;;;;;2.63;1.70;;;12.20;99.90;;;12.61;100.00;94759.00;2220432;56;27061;-50
2021/07/15 02:35:34;;;;;;;1.63;1.53;;;12.20;99.90;;;12.49;100.00;94758.00;2460189;54;26707;-50
2021/07/15 02:38:24;;;;;;;3.27;1.90;;;12.00;99.90;;;12.29;100.00;94763.00;2232253;56;26644;-50
2021/07/15 02:41:10;;;;;;;1.93;1.63;;;11.90;99.90;;;12.22;100.00;94751.00;2455641;54;26682;-50
2021/07/15 02:43:56;;;;;;;2.50;1.77;;;11.90;99.90;;;12.26;100.00;94755.00;2230774;56;26743;-49
2021/07/15 02:46:43;;;;;;;2.10;1.90;;;11.80;99.90;;;12.08;100.00;94758.00;2468898;54;26585;-49
2021/07/15 02:49:29;;;;;;;3.17;1.80;;;11.80;99.90;;;12.10;100.00;94761.00;2220706;55;26820;-50
2021/07/15 02:52:18;;;;;;;3.17;2.07;;;11.70;99.90;;;12.05;100.00;94761.00;2439224;54;27200;-50
2021/07/15 02:55:07;;;;;;;3.00;2.10;;;11.80;99.90;;;12.14;100.00;94762.00;2206755;55;27261;-50
2021/07/15 02:58:02;;;;;;;11.40;2.37;;;11.70;99.90;;;12.09;100.00;94754.00;2404018;55;26738;-50
2021/07/15 03:00:56;;;;;;;4.47;2.20;;;11.70;99.90;;;12.08;100.00;94757.00;2404536;55;26902;-50
2021/07/15 03:06:45;;;;;;;2.67;1.90;;;11.90;99.90;;;12.30;100.00;94739.00;2469675;54;33889;-49
2021/07/15 03:12:32;;;;;;;4.03;1.90;;;11.80;99.90;;;12.15;100.00;94727.00;2366578;55;33845;-50
2021/07/15 03:15:19;;;;;;;1.90;1.70;;;11.80;99.90;;;12.20;100.00;94764.00;2341622;56;26713;-49
2021/07/15 03:18:07;;;;;;;10.17;2.00;;;11.80;99.90;;;12.10;100.00;94761.00;2162659;56;26683;-50
2021/07/15 03:20:56;;;;;;;3.60;1.47;;;11.80;99.90;;;12.15;100.00;94754.00;2378857;56;27294;-49
2021/07/15 03:23:44;;;;;;;14.87;9.40;;;11.70;99.90;;;12.02;100.00;94761.00;2161168;56;26778;-50
2021/07/15 03:26:31;;;;;;;3.40;1.20;;;11.70;99.90;;;12.05;100.00;94752.00;2360123;56;27207;-50
2021/07/15 03:29:19;;;;;;;4.53;1.87;;;11.70;99.90;;;12.10;100.00;94761.00;2193131;56;26752;-50
2021/07/15 03:32:08;;;;;;;2.13;1.50;;;11.80;99.90;;;12.33;100.00;94748.00;2415588;55;26841;-50
2021/07/15 03:34:54;;;;;;;1.63;1.47;;;11.70;99.90;;;12.18;100.00;94756.00;2159832;56;26217;-49
2021/07/15 03:37:45;;;;;;;1.40;1.27;;;11.80;99.90;;;12.29;100.00;94761.00;2368065;56;26177;-53
2021/07/15 03:40:33;;;;;;;1.60;1.07;;;11.80;99.90;;;12.14;100.00;94768.00;2162306;56;27580;-50
2021/07/15 03:43:19;;;;;;;1.53;1.43;;;11.80;99.90;;;12.13;100.00;94764.00;2158220;56;27361;-49
2021/07/15 03:46:07;;;;;;;2.77;1.20;;;11.80;99.90;;;12.09;100.00;94773.00;2151848;57;26861;-50
2021/07/15 03:48:53;;;;;;;1.87;1.30;;;11.70;99.90;;;12.09;100.00;94773.00;2366675;56;26131;-50
2021/07/15 03:51:40;;;;;;;3.20;1.30;;;11.70;99.90;;;12.13;100.00;94773.00;2378578;56;27208;-50
2021/07/15 03:54:28;;;;;;;1.20;1.10;;;11.70;99.90;;;12.14;100.00;94780.00;2166282;57;26142;-49
2021/07/15 03:57:18;;;;;;;1.00;0.90;;;11.70;99.90;;;12.13;100.00;94773.00;2378333;56;27211;-50
2021/07/15 04:00:08;;;;;;;1.43;1.33;;;11.80;99.90;;;12.26;100.00;94787.00;2180577;57;26166;-50
2021/07/15 04:03:00;;;;;;;1.40;1.30;;;12.00;99.90;;;12.45;100.00;94789.00;2185614;56;26844;-50
2021/07/15 04:05:49;;;;;;;2.67;1.73;;;11.90;99.90;;;12.45;100.00;94804.00;2405585;56;27200;-49
2021/07/15 04:11:42;;;;;;;1.43;1.30;;;11.90;99.90;;;12.47;100.00;94776.00;2358525;56;33946;-50
2021/07/15 04:17:45;;;;;;;1.30;1.20;;;11.90;99.90;;;12.46;100.00;94777.00;2389938;55;34349;-50
2021/07/15 04:20:32;;;;;;;2.43;1.07;;;12.00;99.90;;;12.40;100.00;94804.00;2392523;56;27305;-49
2021/07/15 04:26:18;;;;;;;1.60;1.30;;;12.10;99.90;;;12.69;100.00;94785.00;2434294;54;34124;-49
2021/07/15 04:29:06;;;;;;;1.10;1.00;;;12.10;99.90;;;12.56;100.00;94819.00;2215108;55;27324;-50
2021/07/15 04:32:23;;;;;;;1.30;1.20;;;12.20;99.90;;;12.66;100.00;94810.00;2444207;55;26832;-50
2021/07/15 04:35:13;;;;;;;1.80;1.13;;;12.20;99.90;;;12.63;100.00;94810.00;2232825;56;26763;-49
2021/07/15 04:38:01;;;;;;;3.33;1.80;;;12.20;99.90;;;12.57;100.00;94813.00;2451950;54;27728;-49
2021/07/15 04:43:45;;;;;;;2.47;1.63;;;12.20;99.90;;;12.82;100.00;94791.00;2375969;54;33962;-49
2021/07/15 04:46:33;;;;;;;1.60;1.50;;;12.40;99.90;;;12.82;100.00;94806.00;2161818;56;26887;-50
2021/07/15 04:49:20;;;;;;;2.50;1.30;;;12.30;99.90;;;12.77;100.00;94803.00;2414597;55;27149;-50
2021/07/15 04:55:08;;;;;;;6.97;1.80;;;12.40;99.90;;;13.01;100.00;94789.00;2423160;55;33778;-49
2021/07/15 04:57:55;;;;;;;1.57;1.20;;;12.40;99.90;;;12.81;100.00;94810.00;2189866;56;26845;-50
2021/07/15 05:00:42;;;;;;;2.17;1.62;;;12.40;99.90;;;12.80;100.00;94808.00;2414325;55;26582;-50
2021/07/15 05:03:32;;;;;;;1.30;1.20;;;12.50;99.90;;;12.89;100.00;94802.00;2208712;56;27616;-50
2021/07/15 05:06:21;;;;;;;1.20;1.10;;;12.50;99.90;;;12.95;100.00;94811.00;2413275;55;27278;-50
2021/07/15 05:09:07;;;;;;;4.97;1.10;;;12.60;99.90;;;13.02;100.00;94811.00;2409172;55;26589;-50
2021/07/15 05:11:54;;;;;;;1.60;1.50;;;12.60;99.90;;;13.07;100.00;94806.00;2412457;55;26694;-50
2021/07/15 05:14:43;;;;;;;1.27;1.00;;;12.60;99.90;;;13.08;100.00;94811.00;2211327;56;27272;-50
2021/07/15 05:17:31;;;;;;;2.00;1.50;;;12.70;99.90;;;13.26;100.00;94814.00;2438743;55;26827;-50
2021/07/15 05:20:17;;;;;;;2.05;1.40;;;12.70;99.90;;;13.11;100.00;94815.00;2209252;56;26917;-50
2021/07/15 05:23:04;;;;;;;2.33;1.12;;;12.80;99.90;;;13.40;100.00;94819.00;2430287;55;26845;-50
2021/07/15 05:25:53;;;;;;;1.50;1.27;;;13.00;99.90;;;13.50;100.00;94818.00;2209635;56;26714;-50
2021/07/15 05:28:40;;;;;;;4.50;1.40;;;13.10;99.90;;;13.53;100.00;94810.00;2438853;55;26773;-50
2021/07/15 05:31:27;;;;;;;1.73;1.30;;;13.10;99.90;;;13.52;100.00;94806.00;2212167;55;26830;-50
2021/07/15 05:34:14;;;;;;;3.13;1.23;;;13.20;99.90;;;13.57;100.00;94798.00;2208893;56;27023;-50
2021/07/15 05:37:03;;;;;;;1.42;1.30;;;13.30;99.90;;;13.82;100.00;94802.00;2437595;55;27261;-50
2021/07/15 05:39:50;;;;;;;1.30;0.93;;;13.30;99.90;;;13.74;100.00;94799.00;2207169;56;27687;-51
2021/07/15 05:42:36;;;;;;;1.37;1.20;;;13.30;99.90;;;13.68;100.00;94787.00;2217318;56;26786;-50
2021/07/15 05:45:23;;;;;;;1.20;1.10;;;13.40;99.90;;;13.82;100.00;94789.00;2217354;56;26742;-50
2021/07/15 05:51:06;;;;;;;1.43;1.30;;;13.60;99.90;;;14.11;100.00;94766.00;2414464;55;33529;-50
2021/07/15 05:53:53;;;;;;;1.33;1.23;;;13.70;99.90;;;14.24;100.00;94780.00;2183754;55;26670;-50
2021/07/15 05:56:39;;;;;;;4.20;1.10;;;13.80;99.90;;;14.26;100.00;94780.00;2401911;55;26775;-49
2021/07/15 06:02:21;;;;;;;1.60;1.30;;;13.80;99.90;;;14.54;100.00;94768.00;2430308;55;33291;-50
2021/07/15 06:05:10;;;;;;;1.08;0.98;;;14.20;99.90;;;14.75;100.00;94790.00;2221864;56;26873;-50
2021/07/15 06:07:56;;;;;;;1.42;1.20;;;14.20;99.90;;;14.77;100.00;94786.00;2435340;55;26770;-50
2021/07/15 06:16:37;;;;;;;1.35;1.10;;;14.60;99.90;;;15.26;100.00;94769.00;2325178;57;34113;-50
2021/07/15 06:19:24;;;;;;;1.67;1.10;;;14.70;99.90;;;15.25;100.00;94776.00;2314535;58;27019;-50
2021/07/15 06:22:10;;;;;;;2.12;1.17;;;14.90;99.90;;;15.53;100.00;94771.00;2120891;57;26716;-49
2021/07/15 06:24:57;;;;;;;1.05;0.80;;;14.90;99.90;;;15.41;100.00;94765.00;2135057;57;26207;-50
2021/07/15 06:27:44;;;;;;;4.68;1.17;;;14.90;99.90;;;15.42;100.00;94755.00;2136285;57;26832;-49
2021/07/15 06:30:30;;;;;;;1.92;0.90;;;15.10;99.90;;;15.67;100.00;94758.00;2341903;57;26841;-49
2021/07/15 06:33:16;;;;;;;0.80;0.80;;;15.40;99.90;;;16.04;100.00;94750.00;2342452;57;26735;-49
2021/07/15 06:36:04;;;;;;;1.20;1.10;;;16.00;99.90;;;16.95;100.00;94752.00;2134462;57;26199;-51
2021/07/15 06:38:50;;;;;;;1.30;0.90;;;16.40;99.90;;;17.38;100.00;94738.00;2135395;57;26763;-49
2021/07/15 06:41:37;;;;;;;0.77;0.77;;;16.90;99.90;;;17.91;100.00;94729.00;2133756;57;26226;-50
2021/07/15 06:44:24;;;;;;;3.03;1.02;;;17.30;99.90;;;18.29;100.00;94731.00;2136019;57;26638;-49
2021/07/15 06:47:11;;;;;;;1.30;1.20;;;17.50;99.90;;;18.27;100.00;94731.00;2133732;58;26806;-49
2021/07/15 06:52:54;;;;;;;1.35;1.02;;;17.80;99.90;;;18.78;100.00;94718.00;2392098;55;33623;-50
2021/07/15 06:55:42;;;;;;;2.37;0.90;;;18.00;99.90;;;19.10;100.00;94715.00;2185061;56;26578;-50
2021/07/15 06:58:29;;;;;;;2.15;0.85;;;18.60;99.90;;;19.94;100.00;94712.00;2401838;56;27302;-50
2021/07/15 07:01:15;;;;;;;1.75;0.85;;;19.60;99.90;;;21.10;100.00;94708.00;2184840;56;26617;-50
2021/07/15 07:04:02;;;;;;;2.37;0.80;;;20.20;99.90;;;21.41;100.00;94707.00;2402175;56;26126;-50
2021/07/15 07:09:46;;;;;;;1.00;0.90;;;21.00;99.90;;;23.15;100.00;94702.00;2457195;53;34090;-50
2021/07/15 07:12:32;;;;;;;3.42;0.82;;;21.70;99.90;;;23.46;100.00;94697.00;2232399;53;26903;-49
2021/07/15 07:15:19;;;;;;;0.93;0.85;;;21.60;99.90;;;22.68;100.00;94693.00;2232179;53;26773;-50
2021/07/15 07:21:02;;;;;;;1.42;1.08;;;24.30;99.90;;;27.39;100.00;94680.00;2369588;55;33863;-51
2021/07/15 07:23:49;;;;;;;1.77;0.90;;;24.20;99.90;;;25.91;100.00;94689.00;2140463;57;26789;-50
2021/07/15 07:29:33;;;;;;;1.58;1.00;;;22.00;99.90;;;22.62;100.00;94687.00;2420843;55;33615;-50
2021/07/15 07:32:19;;;;;;;1.15;1.00;;;21.00;99.90;;;21.32;100.00;94693.00;2183831;56;26144;-50
2021/07/15 07:35:09;;;;;;;1.58;0.90;;;19.90;99.90;;;20.25;100.00;94702.00;2188384;56;26736;-50
2021/07/15 07:37:55;;;;;;;2.25;0.90;;;19.20;99.90;;;19.58;100.00;94701.00;2187284;56;27236;-50
2021/07/15 07:40:42;;;;;;;0.80;0.80;;;18.70;99.90;;;18.94;100.00;94700.00;2190626;56;26156;-49
2021/07/15 07:43:28;;;;;;;1.08;0.90;;;18.30;99.90;;;18.64;100.00;94702.00;2439367;55;26622;-50
2021/07/15 07:46:15;;;;;;;1.17;1.00;;;18.00;99.90;;;18.39;100.00;94697.00;2438933;55;26796;-50
2021/07/15 07:49:01;;;;;;;1.20;0.93;;;17.80;99.90;;;18.31;100.00;94698.00;2214004;56;26438;-50
2021/07/15 07:51:48;;;;;;;2.70;1.10;;;17.80;99.90;;;18.35;100.00;94694.00;2438496;55;27373;-50
2021/07/15 07:54:34;;;;;;;2.33;1.10;;;17.90;99.90;;;18.39;100.00;94697.00;2216332;55;26570;-50
2021/07/15 07:57:20;;;;;;;1.35;1.10;;;17.70;99.90;;;18.10;100.00;94696.00;2215476;56;26602;-50
2021/07/15 08:03:06;;;;;;;2.15;1.00;;;17.30;99.90;;;17.66;100.00;94696.00;2484950;53;34189;-50
2021/07/15 08:05:52;;;;;;;1.98;1.00;;;17.00;99.90;;;17.34;100.00;94698.00;2457297;55;27140;-50
2021/07/15 08:08:39;;;;;;;3.25;1.20;;;16.90;99.90;;;17.34;100.00;94693.00;2236901;55;27298;-50
2021/07/15 08:11:26;;;;;;;1.33;1.00;;;16.90;99.90;;;17.40;100.00;94713.00;2461603;55;26821;-50
2021/07/15 08:14:13;;;;;;;2.67;1.10;;;16.90;99.90;;;17.43;100.00;94715.00;2233443;55;26553;-50
2021/07/15 08:17:00;;;;;;;105.37;10.02;;;17.00;99.90;;;17.55;100.00;94719.00;2458182;55;26632;-50
2021/07/15 08:19:46;;;;;;;2.33;0.90;;;17.00;99.90;;;17.60;100.00;94732.00;2230479;55;26662;-50
2021/07/15 08:22:33;;;;;;;1.62;1.12;;;17.00;99.90;;;17.53;100.00;94734.00;2457493;55;26775;-50
2021/07/15 08:25:19;;;;;;;42.97;8.10;;;17.00;99.90;;;17.65;100.00;94748.00;2233477;55;26747;-50
2021/07/15 08:28:06;;;;;;;2.83;1.83;;;17.00;99.90;;;17.53;100.00;94756.00;2463601;55;26581;-50
2021/07/15 08:30:52;;;;;;;5.20;3.60;;;17.10;99.90;;;17.72;100.00;94754.00;2235089;55;26565;-51
2021/07/15 08:33:39;;;;;;;20.65;1.80;;;17.10;99.90;;;17.91;100.00;94758.00;2234325;55;26883;-51
2021/07/15 08:36:28;;;;;;;88.20;4.50;;;17.20;99.90;;;17.99;100.00;94763.00;2216973;55;26824;-50
2021/07/15 08:39:15;;;;;;;2.05;1.20;;;17.30;99.90;;;18.19;100.00;94769.00;2447829;54;26249;-51
2021/07/15 08:42:01;;;;;;;4.10;1.80;;;17.40;99.90;;;18.12;100.00;94768.00;2236666;55;26844;-51
2021/07/15 08:47:46;;;;;;;2.90;1.70;;;17.40;99.90;;;18.14;100.00;94772.00;2369743;55;33932;-50
2021/07/15 08:50:32;;;;;;;2.47;1.50;;;17.30;99.90;;;17.99;100.00;94768.00;2410704;55;26111;-50
2021/07/15 08:53:20;;;;;;;40.88;2.75;;;17.10;99.90;;;17.93;100.00;94774.00;2154916;55;26705;-51
2021/07/15 08:59:14;;;;;;;1.73;1.37;;;17.10;99.90;;;17.70;100.00;94783.00;2201484;55;26730;-50
2021/07/15 09:05:03;;;;;;;153.40;17.12;;;16.80;99.90;;;17.65;100.00;94778.00;2375559;54;33270;-51
2021/07/15 09:07:51;;;;;;;1.00;0.90;;;16.70;99.90;;;17.44;100.00;94783.00;2382948;56;27412;-50
2021/07/15 09:10:40;;;;;;;0.98;0.90;;;16.60;99.90;;;17.25;100.00;94791.00;2169170;55;27147;-50
2021/07/15 09:13:26;;;;;;;600.22;82.35;;;16.60;99.90;;;17.10;100.00;94789.00;2182360;55;26657;-50
2021/07/15 09:16:15;;;;;;;1.00;0.90;;;16.50;99.90;;;17.08;100.00;94790.00;2184089;55;26903;-51
2021/07/15 09:22:10;;;;;;;2.17;1.00;;;16.30;99.90;;;16.88;100.00;94784.00;2453312;54;33549;-51
2021/07/15 09:30:48;;;;;;;0.62;0.60;;;16.20;99.90;;;16.86;100.00;94801.00;2424160;55;33686;-50
2021/07/15 09:33:38;;;;;;;0.90;0.60;;;16.10;99.90;;;16.68;100.00;94804.00;2210085;55;26861;-50
2021/07/15 09:36:24;;;;;;;0.70;0.70;;;16.00;99.90;;;16.43;100.00;94807.00;2435832;55;27229;-51
2021/07/15 09:42:19;;;;;;;0.75;0.70;;;15.80;99.90;;;16.60;100.00;94811.00;2421351;55;34178;-51
2021/07/15 09:48:15;;;;;;;1.17;0.82;;;15.90;99.90;;;16.87;100.00;94809.00;2444463;54;34315;-51
2021/07/15 09:54:06;;;;;;;1.17;0.90;;;15.80;99.90;;;16.64;100.00;94806.00;2428712;54;33703;-51
2021/07/15 09:56:52;;;;;;;1.12;0.90;;;16.00;99.90;;;16.65;100.00;94813.00;2431604;55;27290;-50
2021/07/15 09:59:50;;;;;;;52.53;7.57;;;16.00;99.90;;;16.61;100.00;94819.00;2195126;56;27215;-51
2021/07/15 10:02:37;;;;;;;1.05;0.95;;;16.20;99.90;;;16.79;100.00;94820.00;2403289;55;26148;-51
2021/07/15 10:08:29;;;;;;;1.30;0.73;;;16.30;99.90;;;17.09;100.00;94798.00;2407188;55;34598;-50
2021/07/15 10:11:19;;;;;;;1.42;0.70;;;16.60;99.90;;;17.40;100.00;94803.00;2381337;56;26166;-51
2021/07/15 10:14:09;;;;;;;0.98;0.88;;;16.60;99.90;;;17.09;100.00;94802.00;2162375;55;26770;-53
2021/07/15 10:20:11;;;;;;;0.70;0.70;;;16.90;99.90;;;17.80;100.00;94799.00;2349968;56;34340;-51
2021/07/15 10:22:58;;;;;;;0.93;0.75;;;16.90;99.90;;;17.46;100.00;94802.00;2110109;58;26949;-51
2021/07/15 10:25:44;;;;;;;1.70;0.95;;;16.80;99.90;;;17.37;100.00;94807.00;2113580;56;26687;-51
2021/07/15 10:28:32;;;;;;;0.95;0.80;;;17.00;99.90;;;17.61;100.00;94814.00;2308698;58;26937;-51
2021/07/15 10:31:22;;;;;;;1.52;0.82;;;17.20;99.90;;;17.89;100.00;94805.00;2307738;58;26817;-50
2021/07/15 10:34:09;;;;;;;1.10;0.88;;;17.40;99.90;;;18.01;100.00;94798.00;2105584;58;26814;-51
2021/07/15 10:37:00;;;;;;;1.00;0.75;;;17.50;99.90;;;18.34;100.00;94800.00;2106046;58;27366;-51
2021/07/15 10:39:48;;;;;;;1.10;0.90;;;17.60;99.90;;;18.44;100.00;94796.00;2105693;58;26610;-50
2021/07/15 10:42:35;;;;;;;1.08;0.98;;;17.70;99.90;;;18.32;100.00;94801.00;2106257;58;27369;-51
2021/07/15 10:45:21;;;;;;;0.85;0.75;;;17.50;99.90;;;18.17;100.00;94805.00;2309938;58;26705;-50
2021/07/15 10:51:05;;;;;;;1.25;0.80;;;17.50;99.90;;;18.02;100.00;94796.00;2411938;55;34194;-51
2021/07/15 10:56:50;;;;;;;0.90;0.90;;;18.00;99.90;;;19.01;100.00;94797.00;2372402;55;34770;-51
2021/07/15 10:59:37;;;;;;;1.42;1.10;;;18.20;99.90;;;18.99;100.00;94799.00;2146813;56;27166;-50
2021/07/15 11:02:25;;;;;;;0.73;0.70;;;18.60;99.90;;;19.42;100.00;94799.00;2365404;55;26720;-50
2021/07/15 11:05:26;;;;;;;1.25;0.80;;;18.80;99.90;;;19.51;100.00;94795.00;2179603;56;26725;-50
2021/07/15 11:08:13;;;;;;;1.60;1.00;;;19.00;99.90;;;19.69;100.00;94801.00;2136677;57;27262;-51
2021/07/15 11:11:00;;;;;;;1.05;0.93;;;18.80;99.90;;;19.45;100.00;94803.00;2161638;56;27286;-50
2021/07/15 11:13:47;;;;;;;0.98;0.88;;;18.80;99.90;;;19.47;100.00;94804.00;2185157;56;26868;-51
2021/07/15 11:16:53;;;;;;;1.37;0.90;;;18.80;99.90;;;19.52;100.00;94801.00;2188395;56;26730;-50
2021/07/15 11:20:10;;;;;;;1.00;0.80;;;18.80;99.90;;;19.51;100.00;94810.00;2185068;56;26252;-51
2021/07/15 11:25:53;;;;;;;2.00;1.50;;;18.80;99.90;;;19.10;100.00;94800.00;2359113;56;34347;-50
2021/07/15 11:28:50;;;;;;;130.52;10.25;;;18.50;99.90;;;19.07;100.00;94804.00;2158671;57;27021;-51
2021/07/15 11:31:44;;;;;;;2.00;1.90;;;18.50;99.90;;;19.29;100.00;94809.00;2371517;57;27477;-50
2021/07/15 11:37:46;;;;;;;5.25;1.17;;;18.70;99.90;;;19.72;100.00;94807.00;2413094;55;33953;-51
2021/07/15 11:40:50;;;;;;;1.00;0.93;;;18.80;99.90;;;19.61;100.00;94807.00;2184130;55;26901;-51
2021/07/15 11:43:55;;;;;;;2.03;1.10;;;18.80;99.90;;;19.56;100.00;94811.00;2199743;55;26780;-51
2021/07/15 11:46:44;;;;;;;1.10;0.73;;;18.80;99.90;;;19.51;100.00;94803.00;2400511;55;26725;-51
2021/07/15 11:52:27;;;;;;;0.90;0.90;;;18.80;99.90;;;19.33;100.00;94802.00;2418741;54;33967;-51
2021/07/15 11:55:16;;;;;;;0.90;0.88;;;18.10;99.90;;;18.54;100.00;94808.00;2365336;56;26802;-50
2021/07/15 11:58:03;;;;;;;1.10;1.00;;;17.50;99.90;;;17.77;100.00;94815.00;2145936;56;27003;-50
2021/07/15 12:01:11;;;;;;;2.42;1.55;;;17.20;99.90;;;17.54;100.00;94815.00;2372758;56;26819;-51
2021/07/15 12:03:59;;;;;;;1.08;0.80;;;17.30;99.90;;;17.88;100.00;94809.00;2374568;55;26788;-50
2021/07/15 12:06:47;;;;;;;2.53;1.12;;;17.50;99.90;;;18.19;100.00;94813.00;2164633;56;26639;-51
2021/07/15 12:09:33;;;;;;;0.93;0.73;;;17.80;99.90;;;18.41;100.00;94817.00;2151105;55;27179;-51
2021/07/15 12:12:20;;;;;;;0.70;0.65;;;18.00;99.90;;;18.46;100.00;94812.00;2146192;56;27281;-50
2021/07/15 12:15:17;;;;;;;0.60;0.50;;;18.20;99.90;;;18.93;100.00;94819.00;2164515;55;27395;-54
2021/07/15 12:18:11;;;;;;;0.85;0.60;;;18.30;99.90;;;18.92;100.00;94823.00;2183964;55;26810;-50
2021/07/15 12:20:59;;;;;;;3.33;0.70;;;18.30;99.90;;;18.74;100.00;94812.00;2188431;55;26804;-50
2021/07/15 12:23:47;;;;;;;2.20;0.73;;;18.30;99.90;;;18.72;100.00;94811.00;2187395;55;26893;-50
2021/07/15 12:26:35;;;;;;;1.50;0.65;;;18.10;99.90;;;18.50;100.00;94815.00;2184967;55;26796;-53
2021/07/15 12:29:21;;;;;;;0.45;0.45;;;18.30;99.90;;;19.08;100.00;94812.00;2187713;55;26859;-50
2021/07/15 12:32:08;;;;;;;1.40;0.80;;;18.50;99.90;;;19.04;100.00;94815.00;2185838;55;26873;-51
2021/07/15 12:34:55;;;;;;;0.70;0.62;;;18.40;99.90;;;18.98;100.00;94810.00;2173298;55;26632;-51
2021/07/15 12:37:42;;;;;;;0.40;0.40;;;18.60;99.90;;;19.34;100.00;94817.00;2400033;55;26170;-51
2021/07/15 12:40:32;;;;;;;1.42;0.52;;;18.60;99.90;;;19.12;100.00;94814.00;2419378;55;26800;-50
2021/07/15 12:43:21;;;;;;;3.72;3.53;;;18.70;99.90;;;19.25;100.00;94816.00;2395841;56;26554;-50
2021/07/15 12:46:11;;;;;;;0.30;0.30;;;18.90;99.90;;;19.65;100.00;94814.00;2178351;55;27459;-50
2021/07/15 12:49:00;;;;;;;0.62;0.60;;;19.00;99.90;;;19.80;100.00;94814.00;2396726;55;26653;-51
2021/07/15 12:51:50;;;;;;;0.60;0.60;;;19.00;99.90;;;19.63;100.00;94818.00;2396412;55;27357;-50
2021/07/15 12:54:38;;;;;;;0.75;0.50;;;19.10;99.90;;;19.86;100.00;94814.00;2394975;55;26698;-50
2021/07/15 12:57:25;;;;;;;0.82;0.60;;;19.40;99.90;;;20.40;100.00;94818.00;2393824;55;27093;-50
2021/07/15 13:00:15;;;;;;;1.17;0.50;;;19.60;99.90;;;20.21;100.00;94819.00;2188724;56;26581;-50
2021/07/15 13:05:59;;;;;;;0.50;0.50;;;19.50;99.90;;;20.25;100.00;94809.00;2426366;55;33739;-50
2021/07/15 13:08:53;;;;;;;0.40;0.40;;;19.40;99.90;;;20.09;100.00;94811.00;2385758;56;27047;-50
2021/07/15 13:14:49;;;;;;;1.58;0.50;;;19.50;99.90;;;20.29;100.00;94810.00;2167557;56;26849;-50
2021/07/15 13:17:38;;;;;;;1.83;0.70;;;19.70;99.90;;;20.46;100.00;94806.00;2178188;56;27288;-50
2021/07/15 13:20:25;;;;;;;1.08;0.90;;;19.50;99.90;;;20.24;100.00;94805.00;2209590;56;26645;-50
2021/07/15 13:23:12;;;;;;;4.57;1.10;;;19.30;99.90;;;19.79;100.00;94804.00;2416211;55;26861;-50
2021/07/15 13:25:58;;;;;;;2.15;0.80;;;18.70;99.90;;;19.27;100.00;94801.00;2414804;55;27042;-51
2021/07/15 13:28:44;;;;;;;0.65;0.57;;;19.00;99.90;;;20.08;100.00;94809.00;2210017;56;26647;-52
2021/07/15 13:31:38;;;;;;;0.30;0.30;;;19.30;99.90;;;20.05;100.00;94810.00;2210927;56;26143;-50
2021/07/15 13:34:29;;;;;;;0.62;0.50;;;19.20;99.90;;;19.71;100.00;94810.00;2202414;56;26628;-50
2021/07/15 13:37:16;;;;;;;0.70;0.70;;;19.00;99.90;;;19.60;100.00;94808.00;2207619;56;26779;-50
2021/07/15 13:40:17;;;;;;;0.50;0.50;;;18.80;99.90;;;19.39;100.00;94815.00;2410555;55;26821;-51
2021/07/15 13:43:06;;;;;;;2.87;0.73;;;18.70;99.90;;;19.34;100.00;94818.00;2190047;56;27924;-50
2021/07/15 13:48:50;;;;;;;0.98;0.65;;;18.40;99.90;;;19.06;100.00;94812.00;2434721;54;34364;-52
2021/07/15 13:54:33;;;;;;;1.35;0.80;;;18.20;99.90;;;18.51;100.00;94811.00;2421100;55;34363;-50
2021/07/15 13:57:25;;;;;;;1.62;0.80;;;18.10;99.90;;;18.63;100.00;94817.00;2195596;55;26853;-51
2021/07/15 14:00:15;;;;;;;87.20;3.90;;;18.40;99.90;;;18.98;100.00;94818.00;2408209;55;27700;-50